Time;durP1;ratioP1;P1;durP2;ratioP2;P2;SDS_P1;SDS_P2;PMS_P1;PMS_P2;Temp;Humidity;BMP_temperature;BMP_pressure;BME280_temperature;BME280_humidity;BME280_pressure;Samples;Min_cycle;Max_cycle;Signal;HPM_P1;HPM_P2
2021/12/10 00:00:14;;;;;;;;;;;;;;;;;;5097727;28;19916;-80
2021/12/10 00:02:45;;;;;;;;;;;;;;;;;;5106973;28;19923;-80
2021/12/10 00:05:11;;;;;;;;;;;;;;;;;;5096249;28;19919;-79
2021/12/10 00:07:37;;;;;;;;;;;;;;;;;;5096373;28;19958;-79
2021/12/10 00:10:05;;;;;;;;;;;;;;;;;;5096203;28;19923;-79
2021/12/10 00:12:33;;;;;;;;;;;;;;;;;;5095710;28;19955;-79
2021/12/10 00:14:59;;;;;;;;;;;;;;;;;;5095801;28;20270;-79
2021/12/10 00:17:24;;;;;;;;;;;;;;;;;;5095858;28;19916;-79
2021/12/10 00:19:53;;;;;;;;;;;;;;;;;;5095686;28;19916;-79
2021/12/10 00:22:19;;;;;;;;;;;;;;;;;;5094953;28;19923;-80
2021/12/10 00:24:46;;;;;;;;;;;;;;;;;;5095271;28;19916;-79
2021/12/10 00:27:12;;;;;;;;;;;;;;;;;;5094614;28;19974;-80
2021/12/10 00:29:40;;;;;;;;;;;;;;;;;;5095262;28;19916;-79
2021/12/10 00:32:15;;;;;;;;;;;;;;;;;;5095197;28;20285;-79
2021/12/10 00:34:43;;;;;;;;;;;;;;;;;;5094797;28;19930;-80
2021/12/10 00:37:09;;;;;;;;;;;;;;;;;;5095034;28;20411;-80
2021/12/10 00:39:37;;;;;;;;;;;;;;;;;;5094830;28;19916;-80
2021/12/10 00:42:04;;;;;;;;;;;;;;;;;;5094748;28;19916;-80
2021/12/10 00:44:29;;;;;;;;;;;;;;;;;;5096420;28;20018;-80
2021/12/10 00:46:55;;;;;;;;;;;;;;;;;;5095725;28;20410;-80
2021/12/10 00:49:20;;;;;;;;;;;;;;;;;;5097063;28;19928;-80
2021/12/10 00:51:46;;;;;;;;;;;;;;;;;;5096927;28;19909;-80
2021/12/10 00:54:11;;;;;;;;;;;;;;;;;;5097460;28;19966;-80
2021/12/10 00:56:37;;;;;;;;;;;;;;;;;;5100498;28;19916;-80
2021/12/10 00:59:03;;;;;;;;;;;;;;;;;;5100644;28;19916;-80
2021/12/10 01:01:30;;;;;;;;;;;;;;;;;;5100412;28;19942;-79
2021/12/10 01:04:00;;;;;;;;;;;;;;;;;;5098964;28;19999;-79
2021/12/10 01:06:25;;;;;;;;;;;;;;;;;;5100588;28;19941;-79
2021/12/10 01:08:52;;;;;;;;;;;;;;;;;;5100367;28;19920;-79
2021/12/10 01:11:22;;;;;;;;;;;;;;;;;;5081305;28;20506;-80
2021/12/10 01:13:50;;;;;;;;;;;;;;;;;;5079634;28;19921;-80
2021/12/10 01:29:18;;;;;;;;;;;;;;;;;;5100395;28;19923;-80
2021/12/10 01:31:43;;;;;;;;;;;;;;;;;;5099977;28;19934;-80
2021/12/10 01:34:09;;;;;;;;;;;;;;;;;;5098792;28;19946;-80
2021/12/10 01:36:35;;;;;;;;;;;;;;;;;;5079199;28;19938;-80
2021/12/10 01:39:00;;;;;;;;;;;;;;;;;;5079300;28;20289;-80
2021/12/10 01:41:29;;;;;;;;;;;;;;;;;;5079046;28;20423;-79
2021/12/10 01:44:01;;;;;;;;;;;;;;;;;;5079174;28;19924;-79
2021/12/10 01:46:28;;;;;;;;;;;;;;;;;;5078556;28;19942;-80
2021/12/10 01:48:57;;;;;;;;;;;;;;;;;;5078037;28;21698;-80
2021/12/10 01:51:24;;;;;;;;;;;;;;;;;;5078578;28;19938;-80
2021/12/10 01:53:51;;;;;;;;;;;;;;;;;;5078347;28;19920;-80
2021/12/10 01:56:19;;;;;;;;;;;;;;;;;;5078486;28;20452;-79
2021/12/10 01:58:45;;;;;;;;;;;;;;;;;;5078328;28;19959;-80
2021/12/10 02:01:14;;;;;;;;;;;;;;;;;;5077585;28;19920;-79
2021/12/10 02:03:40;;;;;;;;;;;;;;;;;;5078204;28;19916;-79
2021/12/10 02:06:06;;;;;;;;;;;;;;;;;;5094476;28;19923;-79
2021/12/10 02:08:31;;;;;;;;;;;;;;;;;;5096827;28;19916;-79
2021/12/10 02:10:57;;;;;;;;;;;;;;;;;;5097702;28;19970;-80
2021/12/10 02:13:22;;;;;;;;;;;;;;;;;;5097619;28;19920;-79
2021/12/10 02:15:48;;;;;;;;;;;;;;;;;;5097649;28;19916;-80
2021/12/10 02:18:13;;;;;;;;;;;;;;;;;;5097872;28;20294;-79
2021/12/10 02:20:47;;;;;;;;;;;;;;;;;;5097094;28;20475;-79
2021/12/10 02:23:13;;;;;;;;;;;;;;;;;;5099204;28;19916;-81
2021/12/10 02:25:38;;;;;;;;;;;;;;;;;;5099468;28;20305;-80
2021/12/10 02:28:06;;;;;;;;;;;;;;;;;;5099748;28;19969;-81
2021/12/10 02:30:31;;;;;;;;;;;;;;;;;;5099974;28;19916;-80
2021/12/10 02:32:57;;;;;;;;;;;;;;;;;;5099171;28;19923;-80
2021/12/10 02:35:23;;;;;;;;;;;;;;;;;;5099831;28;19970;-80
2021/12/10 02:37:48;;;;;;;;;;;;;;;;;;5099534;28;19916;-80
2021/12/10 02:40:16;;;;;;;;;;;;;;;;;;5099392;28;19990;-80
2021/12/10 02:42:41;;;;;;;;;;;;;;;;;;5099410;28;19920;-80
2021/12/10 02:45:07;;;;;;;;;;;;;;;;;;5099177;28;19916;-80
2021/12/10 02:47:33;;;;;;;;;;;;;;;;;;5098828;28;19916;-80
2021/12/10 02:49:58;;;;;;;;;;;;;;;;;;5098547;28;19916;-80
2021/12/10 02:52:26;;;;;;;;;;;;;;;;;;5099729;28;19916;-81
2021/12/10 02:54:51;;;;;;;;;;;;;;;;;;5099746;28;20316;-80
2021/12/10 02:57:17;;;;;;;;;;;;;;;;;;5099028;28;19916;-80
2021/12/10 02:59:42;;;;;;;;;;;;;;;;;;5098865;28;19916;-80
2021/12/10 03:02:13;;;;;;;;;;;;;;;;;;5098491;28;19916;-80
2021/12/10 03:04:40;;;;;;;;;;;;;;;;;;5098407;28;19916;-80
2021/12/10 03:07:11;;;;;;;;;;;;;;;;;;5097709;28;20029;-80
2021/12/10 03:09:37;;;;;;;;;;;;;;;;;;5098038;28;19916;-80
2021/12/10 03:12:02;;;;;;;;;;;;;;;;;;5097455;28;20034;-80
2021/12/10 03:14:29;;;;;;;;;;;;;;;;;;5077282;28;20294;-80
2021/12/10 03:16:55;;;;;;;;;;;;;;;;;;5076930;28;19916;-80
2021/12/10 03:19:21;;;;;;;;;;;;;;;;;;5075432;28;19920;-80
2021/12/10 03:21:47;;;;;;;;;;;;;;;;;;5077744;28;20276;-80
2021/12/10 03:24:15;;;;;;;;;;;;;;;;;;5077515;28;19916;-80
2021/12/10 03:26:40;;;;;;;;;;;;;;;;;;5076007;28;19926;-80
2021/12/10 03:29:06;;;;;;;;;;;;;;;;;;5076979;28;19963;-80
2021/12/10 03:31:32;;;;;;;;;;;;;;;;;;5075680;28;19966;-80
2021/12/10 03:33:57;;;;;;;;;;;;;;;;;;5081367;28;19927;-80
2021/12/10 03:36:23;;;;;;;;;;;;;;;;;;5097019;28;20370;-80
2021/12/10 03:38:48;;;;;;;;;;;;;;;;;;5097208;28;20003;-80
2021/12/10 03:41:15;;;;;;;;;;;;;;;;;;5097130;28;19916;-79
2021/12/10 03:43:43;;;;;;;;;;;;;;;;;;5096372;28;19974;-79
2021/12/10 03:46:08;;;;;;;;;;;;;;;;;;5098872;28;20007;-80
2021/12/10 03:48:36;;;;;;;;;;;;;;;;;;5100012;28;19959;-80
2021/12/10 03:51:04;;;;;;;;;;;;;;;;;;5099572;28;19916;-80
2021/12/10 03:53:32;;;;;;;;;;;;;;;;;;5099054;28;19920;-80
2021/12/10 03:55:59;;;;;;;;;;;;;;;;;;5097861;28;19940;-80
2021/12/10 03:58:24;;;;;;;;;;;;;;;;;;5098548;28;20381;-80
2021/12/10 04:00:51;;;;;;;;;;;;;;;;;;5098304;28;19916;-80
2021/12/10 04:03:18;;;;;;;;;;;;;;;;;;5097837;28;19978;-80
2021/12/10 04:05:44;;;;;;;;;;;;;;;;;;5078069;28;19943;-80
2021/12/10 04:08:09;;;;;;;;;;;;;;;;;;5077625;28;20555;-80
2021/12/10 04:10:35;;;;;;;;;;;;;;;;;;5075956;28;20369;-80
2021/12/10 04:13:00;;;;;;;;;;;;;;;;;;5077149;28;19943;-80
2021/12/10 04:15:28;;;;;;;;;;;;;;;;;;5076960;28;19920;-80
2021/12/10 04:17:54;;;;;;;;;;;;;;;;;;5078363;28;19930;-80
2021/12/10 04:20:21;;;;;;;;;;;;;;;;;;5117951;28;19938;-80
2021/12/10 04:22:48;;;;;;;;;;;;;;;;;;5117654;28;20006;-80
2021/12/10 04:25:15;;;;;;;;;;;;;;;;;;5117835;28;19962;-80
2021/12/10 04:27:43;;;;;;;;;;;;;;;;;;5118468;28;19920;-80
2021/12/10 04:30:10;;;;;;;;;;;;;;;;;;5121763;28;19923;-81
2021/12/10 04:32:36;;;;;;;;;;;;;;;;;;5122540;28;19969;-80
2021/12/10 04:35:01;;;;;;;;;;;;;;;;;;5122217;28;20525;-80
2021/12/10 04:37:27;;;;;;;;;;;;;;;;;;5122340;28;20328;-80
2021/12/10 04:39:52;;;;;;;;;;;;;;;;;;5121799;28;20357;-80
2021/12/10 04:42:21;;;;;;;;;;;;;;;;;;5122418;28;19916;-80
2021/12/10 04:44:47;;;;;;;;;;;;;;;;;;5114465;28;19912;-80
2021/12/10 04:47:12;;;;;;;;;;;;;;;;;;5101087;28;19920;-80
2021/12/10 04:49:38;;;;;;;;;;;;;;;;;;5101155;28;19923;-80
2021/12/10 04:52:04;;;;;;;;;;;;;;;;;;5100968;28;19997;-79
2021/12/10 04:54:29;;;;;;;;;;;;;;;;;;5099527;28;19986;-80
2021/12/10 04:56:58;;;;;;;;;;;;;;;;;;5100559;28;20336;-80
2021/12/10 04:59:24;;;;;;;;;;;;;;;;;;5100360;28;20015;-80
2021/12/10 05:01:49;;;;;;;;;;;;;;;;;;5082577;28;19951;-80
2021/12/10 05:04:16;;;;;;;;;;;;;;;;;;5078998;28;20010;-80
2021/12/10 05:06:42;;;;;;;;;;;;;;;;;;5081979;28;19920;-80
2021/12/10 05:09:09;;;;;;;;;;;;;;;;;;5081194;28;19916;-81
2021/12/10 05:11:35;;;;;;;;;;;;;;;;;;5079453;28;19923;-77
2021/12/10 05:14:00;;;;;;;;;;;;;;;;;;5078696;28;19924;-77
2021/12/10 05:16:27;;;;;;;;;;;;;;;;;;5077224;28;19923;-78
2021/12/10 05:18:57;;;;;;;;;;;;;;;;;;5077214;28;19924;-77
2021/12/10 05:21:24;;;;;;;;;;;;;;;;;;5078927;28;20006;-80
2021/12/10 05:23:49;;;;;;;;;;;;;;;;;;5078539;28;20307;-80
2021/12/10 05:26:14;;;;;;;;;;;;;;;;;;5078858;28;19912;-81
2021/12/10 05:28:40;;;;;;;;;;;;;;;;;;5078920;28;19916;-78
2021/12/10 05:31:05;;;;;;;;;;;;;;;;;;5089688;28;20003;-78
2021/12/10 05:33:31;;;;;;;;;;;;;;;;;;5099518;28;19931;-79
2021/12/10 05:35:58;;;;;;;;;;;;;;;;;;5098725;28;19916;-78
2021/12/10 05:38:23;;;;;;;;;;;;;;;;;;5097959;28;19916;-79
2021/12/10 05:40:50;;;;;;;;;;;;;;;;;;5098440;28;20019;-80
2021/12/10 05:43:16;;;;;;;;;;;;;;;;;;5098376;28;19923;-79
2021/12/10 05:45:41;;;;;;;;;;;;;;;;;;5098955;28;19920;-83
2021/12/10 05:48:07;;;;;;;;;;;;;;;;;;5098767;28;19916;-80
2021/12/10 05:50:33;;;;;;;;;;;;;;;;;;5098576;28;20277;-81
2021/12/10 05:52:59;;;;;;;;;;;;;;;;;;5100227;28;20032;-79
2021/12/10 05:55:25;;;;;;;;;;;;;;;;;;5102928;28;20166;-81
2021/12/10 05:57:50;;;;;;;;;;;;;;;;;;5107871;28;20361;-79
2021/12/10 06:00:18;;;;;;;;;;;;;;;;;;5105733;28;19916;-80
2021/12/10 06:02:43;;;;;;;;;;;;;;;;;;5103566;28;20315;-80
2021/12/10 06:05:09;;;;;;;;;;;;;;;;;;5100698;28;19916;-78
2021/12/10 06:07:34;;;;;;;;;;;;;;;;;;5102585;28;19923;-80
2021/12/10 06:10:00;;;;;;;;;;;;;;;;;;5104566;28;19916;-82
2021/12/10 06:12:25;;;;;;;;;;;;;;;;;;5106138;28;20344;-82
2021/12/10 06:14:50;;;;;;;;;;;;;;;;;;5101307;28;20412;-83
2021/12/10 06:17:16;;;;;;;;;;;;;;;;;;5100583;28;19912;-81
2021/12/10 06:19:41;;;;;;;;;;;;;;;;;;5100211;28;19948;-79
2021/12/10 06:22:06;;;;;;;;;;;;;;;;;;5097227;28;19916;-80
2021/12/10 06:24:32;;;;;;;;;;;;;;;;;;5102769;28;20387;-81
2021/12/10 06:26:57;;;;;;;;;;;;;;;;;;5099406;28;19916;-81
2021/12/10 06:29:23;;;;;;;;;;;;;;;;;;5096531;28;19916;-81
2021/12/10 06:31:49;;;;;;;;;;;;;;;;;;5098176;28;20349;-81
2021/12/10 06:34:14;;;;;;;;;;;;;;;;;;5096269;28;19920;-81
2021/12/10 06:36:40;;;;;;;;;;;;;;;;;;5095575;28;19923;-81
2021/12/10 06:39:05;;;;;;;;;;;;;;;;;;5095672;28;19923;-81
2021/12/10 06:41:31;;;;;;;;;;;;;;;;;;5095465;28;19974;-81
2021/12/10 06:43:57;;;;;;;;;;;;;;;;;;5095939;28;19916;-81
2021/12/10 06:46:22;;;;;;;;;;;;;;;;;;5095476;28;19927;-81
2021/12/10 06:48:47;;;;;;;;;;;;;;;;;;5095281;28;19916;-81
2021/12/10 06:51:15;;;;;;;;;;;;;;;;;;5096382;28;19916;-81
2021/12/10 06:53:42;;;;;;;;;;;;;;;;;;5096743;28;19931;-81
2021/12/10 06:56:08;;;;;;;;;;;;;;;;;;5097372;28;20024;-81
2021/12/10 06:58:34;;;;;;;;;;;;;;;;;;5099420;28;19924;-81
2021/12/10 07:01:02;;;;;;;;;;;;;;;;;;5099049;28;19985;-81
2021/12/10 07:03:28;;;;;;;;;;;;;;;;;;5099560;28;20297;-81
2021/12/10 07:05:54;;;;;;;;;;;;;;;;;;5101407;28;19916;-81
2021/12/10 07:08:21;;;;;;;;;;;;;;;;;;5103145;28;19912;-82
2021/12/10 07:10:47;;;;;;;;;;;;;;;;;;5101665;28;19976;-81
2021/12/10 07:13:13;;;;;;;;;;;;;;;;;;5101342;28;19915;-81
2021/12/10 07:15:40;;;;;;;;;;;;;;;;;;5100047;28;20336;-81
2021/12/10 07:18:06;;;;;;;;;;;;;;;;;;5100740;28;19916;-81
2021/12/10 07:20:31;;;;;;;;;;;;;;;;;;5100161;28;19961;-81
2021/12/10 07:22:57;;;;;;;;;;;;;;;;;;5099298;28;19916;-81
2021/12/10 07:25:22;;;;;;;;;;;;;;;;;;5102172;28;19923;-81
2021/12/10 07:27:48;;;;;;;;;;;;;;;;;;5102069;28;19920;-82
2021/12/10 07:30:14;;;;;;;;;;;;;;;;;;5100340;28;19916;-81
2021/12/10 07:32:39;;;;;;;;;;;;;;;;;;5099466;28;19916;-81
2021/12/10 07:35:06;;;;;;;;;;;;;;;;;;5097925;28;19927;-81
2021/12/10 07:37:31;;;;;;;;;;;;;;;;;;5099266;28;19919;-81
2021/12/10 07:39:57;;;;;;;;;;;;;;;;;;5099279;28;20007;-81
2021/12/10 07:42:22;;;;;;;;;;;;;;;;;;5099107;28;19974;-81
2021/12/10 07:44:47;;;;;;;;;;;;;;;;;;5098957;28;19960;-81
2021/12/10 07:47:14;;;;;;;;;;;;;;;;;;5098325;28;19920;-81
2021/12/10 07:49:41;;;;;;;;;;;;;;;;;;5097035;28;19923;-81
2021/12/10 07:52:14;;;;;;;;;;;;;;;;;;5098375;28;20282;-81
2021/12/10 07:54:40;;;;;;;;;;;;;;;;;;5096508;28;19927;-81
2021/12/10 07:57:06;;;;;;;;;;;;;;;;;;5096599;28;19956;-81
2021/12/10 07:59:31;;;;;;;;;;;;;;;;;;5098440;28;20448;-81
2021/12/10 08:01:56;;;;;;;;;;;;;;;;;;5097320;28;19916;-81
2021/12/10 08:04:22;;;;;;;;;;;;;;;;;;5100871;28;19916;-82
2021/12/10 08:06:47;;;;;;;;;;;;;;;;;;5095946;28;20008;-81
2021/12/10 08:09:13;;;;;;;;;;;;;;;;;;5102314;28;20439;-81
2021/12/10 08:11:39;;;;;;;;;;;;;;;;;;5103267;28;20439;-81
2021/12/10 08:14:05;;;;;;;;;;;;;;;;;;5103127;28;20281;-81
2021/12/10 08:16:30;;;;;;;;;;;;;;;;;;5101406;28;19919;-81
2021/12/10 08:18:57;;;;;;;;;;;;;;;;;;5102751;28;19916;-81
2021/12/10 08:21:23;;;;;;;;;;;;;;;;;;5102349;28;19923;-81
2021/12/10 08:23:50;;;;;;;;;;;;;;;;;;5084794;28;19920;-81
2021/12/10 08:26:16;;;;;;;;;;;;;;;;;;5102552;28;20385;-81
2021/12/10 08:28:41;;;;;;;;;;;;;;;;;;5101479;28;19931;-81
2021/12/10 08:31:07;;;;;;;;;;;;;;;;;;5101876;28;19923;-81
2021/12/10 08:33:32;;;;;;;;;;;;;;;;;;5101301;28;19912;-81
2021/12/10 08:36:01;;;;;;;;;;;;;;;;;;5103550;28;19915;-81
2021/12/10 08:38:27;;;;;;;;;;;;;;;;;;5080564;28;19995;-81
2021/12/10 08:40:59;;;;;;;;;;;;;;;;;;5080720;28;19954;-81
2021/12/10 08:43:25;;;;;;;;;;;;;;;;;;5062589;28;19994;-81
2021/12/10 08:45:53;;;;;;;;;;;;;;;;;;5080068;28;19924;-81
2021/12/10 08:48:20;;;;;;;;;;;;;;;;;;5081182;28;19920;-81
2021/12/10 08:50:45;;;;;;;;;;;;;;;;;;5063081;28;20432;-81
2021/12/10 08:53:14;;;;;;;;;;;;;;;;;;5081221;28;19921;-82
2021/12/10 08:55:46;;;;;;;;;;;;;;;;;;5081888;28;20005;-83
2021/12/10 08:58:11;;;;;;;;;;;;;;;;;;5082372;28;19920;-83
2021/12/10 09:00:37;;;;;;;;;;;;;;;;;;5081217;28;20002;-82
2021/12/10 09:03:05;;;;;;;;;;;;;;;;;;5062920;28;19924;-83
2021/12/10 09:05:30;;;;;;;;;;;;;;;;;;5062797;28;20124;-83
2021/12/10 09:07:56;;;;;;;;;;;;;;;;;;5067814;28;20442;-82
2021/12/10 09:10:24;;;;;;;;;;;;;;;;;;5098943;28;19931;-81
2021/12/10 09:12:50;;;;;;;;;;;;;;;;;;5100913;28;19920;-81
2021/12/10 09:15:19;;;;;;;;;;;;;;;;;;5099074;28;19920;-82
2021/12/10 09:17:45;;;;;;;;;;;;;;;;;;5100108;28;19912;-81
2021/12/10 09:20:14;;;;;;;;;;;;;;;;;;5098468;28;19969;-81
2021/12/10 09:22:39;;;;;;;;;;;;;;;;;;5100204;28;19916;-82
2021/12/10 09:25:06;;;;;;;;;;;;;;;;;;5099846;28;19917;-82
2021/12/10 09:27:31;;;;;;;;;;;;;;;;;;5099509;28;20337;-82
2021/12/10 09:29:57;;;;;;;;;;;;;;;;;;5099281;28;19923;-82
2021/12/10 09:32:24;;;;;;;;;;;;;;;;;;5099421;28;20297;-83
2021/12/10 09:34:50;;;;;;;;;;;;;;;;;;5099242;28;19920;-82
2021/12/10 09:37:15;;;;;;;;;;;;;;;;;;5086414;28;19913;-82
2021/12/10 09:39:41;;;;;;;;;;;;;;;;;;5077557;28;20035;-82
2021/12/10 09:42:06;;;;;;;;;;;;;;;;;;5078453;28;19917;-82
2021/12/10 09:44:32;;;;;;;;;;;;;;;;;;5076971;28;19948;-82
2021/12/10 09:46:58;;;;;;;;;;;;;;;;;;5077779;28;20023;-83
2021/12/10 09:49:24;;;;;;;;;;;;;;;;;;5080550;28;19931;-82
2021/12/10 09:51:58;;;;;;;;;;;;;;;;;;5080065;28;19917;-82
2021/12/10 09:54:25;;;;;;;;;;;;;;;;;;5077578;28;19924;-82
2021/12/10 09:56:53;;;;;;;;;;;;;;;;;;5077793;28;19917;-82
2021/12/10 09:59:19;;;;;;;;;;;;;;;;;;5077756;28;19955;-82
2021/12/10 10:01:47;;;;;;;;;;;;;;;;;;5077860;28;19923;-82
2021/12/10 10:04:15;;;;;;;;;;;;;;;;;;5076444;28;20439;-82
2021/12/10 10:06:43;;;;;;;;;;;;;;;;;;5077773;28;19917;-82
2021/12/10 10:09:10;;;;;;;;;;;;;;;;;;5077511;28;19975;-82
2021/12/10 10:11:36;;;;;;;;;;;;;;;;;;5077579;28;19916;-82
2021/12/10 10:14:02;;;;;;;;;;;;;;;;;;5077471;28;19947;-82
2021/12/10 10:16:29;;;;;;;;;;;;;;;;;;5077676;28;19939;-82
2021/12/10 10:18:55;;;;;;;;;;;;;;;;;;5077239;28;19916;-82
2021/12/10 10:21:23;;;;;;;;;;;;;;;;;;5077486;28;19916;-81
2021/12/10 10:23:49;;;;;;;;;;;;;;;;;;5077974;28;19924;-82
2021/12/10 10:26:34;;;;;;;;;;;;;;;;;;5081844;28;19920;-82
2021/12/10 10:29:00;;;;;;;;;;;;;;;;;;5083603;28;19916;-82
2021/12/10 10:31:26;;;;;;;;;;;;;;;;;;5081311;28;19923;-83
2021/12/10 10:33:53;;;;;;;;;;;;;;;;;;5079516;28;19924;-83
2021/12/10 10:36:21;;;;;;;;;;;;;;;;;;5118450;28;19922;-82
2021/12/10 10:38:49;;;;;;;;;;;;;;;;;;5120459;28;20392;-82
2021/12/10 10:41:15;;;;;;;;;;;;;;;;;;5120087;28;20430;-82
2021/12/10 10:43:41;;;;;;;;;;;;;;;;;;5119908;28;19919;-82
2021/12/10 10:46:06;;;;;;;;;;;;;;;;;;5119511;28;19928;-83
2021/12/10 10:48:32;;;;;;;;;;;;;;;;;;5119587;28;20301;-82
2021/12/10 10:51:00;;;;;;;;;;;;;;;;;;5119518;28;19923;-82
2021/12/10 10:53:27;;;;;;;;;;;;;;;;;;5119354;28;19916;-82
2021/12/10 10:55:53;;;;;;;;;;;;;;;;;;5118961;28;19916;-82
2021/12/10 10:58:21;;;;;;;;;;;;;;;;;;5118977;28;19916;-82
2021/12/10 11:00:59;;;;;;;;;;;;;;;;;;5119047;28;20014;-82
2021/12/10 11:03:35;;;;;;;;;;;;;;;;;;5117569;28;19916;-82
2021/12/10 11:06:00;;;;;;;;;;;;;;;;;;5098801;28;19916;-82
2021/12/10 11:08:26;;;;;;;;;;;;;;;;;;5078393;28;19923;-82
2021/12/10 11:10:51;;;;;;;;;;;;;;;;;;5078043;28;19969;-82
2021/12/10 11:13:21;;;;;;;;;;;;;;;;;;5077983;28;20390;-82
2021/12/10 11:15:58;;;;;;;;;;;;;;;;;;5077268;28;20394;-82
2021/12/10 11:18:24;;;;;;;;;;;;;;;;;;5076426;28;19916;-82
2021/12/10 11:20:49;;;;;;;;;;;;;;;;;;5077525;28;19924;-82
2021/12/10 11:23:16;;;;;;;;;;;;;;;;;;5093084;28;20362;-82
2021/12/10 11:25:42;;;;;;;;;;;;;;;;;;5097455;28;19923;-82
2021/12/10 11:28:09;;;;;;;;;;;;;;;;;;5096026;28;19916;-82
2021/12/10 11:30:35;;;;;;;;;;;;;;;;;;5097432;28;19916;-82
2021/12/10 11:33:12;;;;;;;;;;;;;;;;;;5097204;28;20354;-82
2021/12/10 11:35:39;;;;;;;;;;;;;;;;;;5096988;28;19963;-83
2021/12/10 11:38:05;;;;;;;;;;;;;;;;;;5096914;28;19916;-83
2021/12/10 11:40:40;;;;;;;;;;;;;;;;;;5098995;28;19923;-83
2021/12/10 11:43:20;;;;;;;;;;;;;;;;;;5097891;28;19923;-83
2021/12/10 11:46:04;;;;;;;;;;;;;;;;;;5099279;28;19948;-77
2021/12/10 11:48:31;;;;;;;;;;;;;;;;;;5098351;28;19969;-81
2021/12/10 11:51:05;;;;;;;;;;;;;;;;;;5097628;28;19923;-80
2021/12/10 11:53:35;;;;;;;;;;;;;;;;;;5105087;28;20279;-84
2021/12/10 11:56:03;;;;;;;;;;;;;;;;;;5105230;28;19951;-84
2021/12/10 11:58:28;;;;;;;;;;;;;;;;;;5088837;28;19919;-82
2021/12/10 12:00:54;;;;;;;;;;;;;;;;;;5108477;28;19916;-85
2021/12/10 12:03:21;;;;;;;;;;;;;;;;;;5107436;28;20383;-84
2021/12/10 12:05:49;;;;;;;;;;;;;;;;;;5125296;28;19916;-85
2021/12/10 12:08:16;;;;;;;;;;;;;;;;;;5122301;28;19916;-82
2021/12/10 12:10:50;;;;;;;;;;;;;;;;;;5086449;28;19920;-82
2021/12/10 12:13:27;;;;;;;;;;;;;;;;;;5099669;28;19959;-78
2021/12/10 12:15:55;;;;;;;;;;;;;;;;;;5095382;28;19927;-79
2021/12/10 12:18:25;;;;;;;;;;;;;;;;;;5102309;28;19916;-78
2021/12/10 12:20:54;;;;;;;;;;;;;;;;;;5101365;28;19916;-79
2021/12/10 12:26:16;;;;;;;;;;;;;;;;;;5094259;28;20431;-78
2021/12/10 12:28:49;;;;;;;;;;;;;;;;;;5094995;28;19960;-77
2021/12/10 12:31:17;;;;;;;;;;;;;;;;;;5094571;28;19916;-78
2021/12/10 12:34:05;;;;;;;;;;;;;;;;;;5093574;28;19950;-77
2021/12/10 12:36:31;;;;;;;;;;;;;;;;;;5084293;28;19920;-77
2021/12/10 12:38:56;;;;;;;;;;;;;;;;;;5093349;28;19923;-77
2021/12/10 12:41:23;;;;;;;;;;;;;;;;;;5091933;28;19999;-77
2021/12/10 12:44:07;;;;;;;;;;;;;;;;;;5093460;28;20273;-77
2021/12/10 12:46:33;;;;;;;;;;;;;;;;;;5093261;28;19920;-77
2021/12/10 12:48:59;;;;;;;;;;;;;;;;;;5093142;28;19923;-77
2021/12/10 12:51:25;;;;;;;;;;;;;;;;;;5096315;28;19920;-77
2021/12/10 12:53:52;;;;;;;;;;;;;;;;;;5096318;28;20362;-77
2021/12/10 12:56:22;;;;;;;;;;;;;;;;;;5096927;28;19916;-76
2021/12/10 12:58:59;;;;;;;;;;;;;;;;;;5095658;28;20354;-77
2021/12/10 13:01:32;;;;;;;;;;;;;;;;;;5096178;28;19923;-77
2021/12/10 13:03:59;;;;;;;;;;;;;;;;;;5095915;28;19961;-76
2021/12/10 13:06:28;;;;;;;;;;;;;;;;;;5096798;28;19923;-77
2021/12/10 13:08:57;;;;;;;;;;;;;;;;;;5095980;28;19915;-77
2021/12/10 13:11:28;;;;;;;;;;;;;;;;;;5096597;28;20281;-77
2021/12/10 13:14:00;;;;;;;;;;;;;;;;;;5096575;28;19927;-76
2021/12/10 13:16:31;;;;;;;;;;;;;;;;;;5078280;28;19923;-77
2021/12/10 13:18:56;;;;;;;;;;;;;;;;;;5096338;28;20002;-77
2021/12/10 13:21:21;;;;;;;;;;;;;;;;;;5096438;28;19916;-77
2021/12/10 13:23:47;;;;;;;;;;;;;;;;;;5096575;28;19916;-77
2021/12/10 13:26:12;;;;;;;;;;;;;;;;;;5096234;28;19959;-77
2021/12/10 13:28:38;;;;;;;;;;;;;;;;;;5096368;28;20289;-77
2021/12/10 13:31:06;;;;;;;;;;;;;;;;;;5096287;28;19994;-77
2021/12/10 13:33:32;;;;;;;;;;;;;;;;;;5094919;28;19915;-77
2021/12/10 13:36:01;;;;;;;;;;;;;;;;;;5096143;28;20006;-77
2021/12/10 13:38:28;;;;;;;;;;;;;;;;;;5095732;28;20342;-77
2021/12/10 13:40:56;;;;;;;;;;;;;;;;;;5096066;28;19916;-76
2021/12/10 13:43:21;;;;;;;;;;;;;;;;;;5095964;28;20397;-77
2021/12/10 13:45:49;;;;;;;;;;;;;;;;;;5095793;28;20031;-77
2021/12/10 13:48:15;;;;;;;;;;;;;;;;;;5094415;28;19965;-77
2021/12/10 13:50:45;;;;;;;;;;;;;;;;;;5095575;28;19916;-77
2021/12/10 13:53:12;;;;;;;;;;;;;;;;;;5096097;28;19922;-77
2021/12/10 13:55:59;;;;;;;;;;;;;;;;;;5095743;28;20350;-77
2021/12/10 13:58:33;;;;;;;;;;;;;;;;;;5095784;28;19916;-77
2021/12/10 14:01:10;;;;;;;;;;;;;;;;;;5095413;28;19916;-77
2021/12/10 14:03:45;;;;;;;;;;;;;;;;;;5093498;28;20328;-76
2021/12/10 14:06:12;;;;;;;;;;;;;;;;;;5095027;28;19993;-77
2021/12/10 14:08:37;;;;;;;;;;;;;;;;;;5095655;28;19923;-77
2021/12/10 14:11:12;;;;;;;;;;;;;;;;;;5095609;28;19916;-77
2021/12/10 14:13:37;;;;;;;;;;;;;;;;;;5095105;28;19915;-77
2021/12/10 14:16:09;;;;;;;;;;;;;;;;;;5094014;28;19977;-77
2021/12/10 14:18:39;;;;;;;;;;;;;;;;;;5094945;28;19916;-76
2021/12/10 14:21:10;;;;;;;;;;;;;;;;;;5095094;28;20014;-77
2021/12/10 14:23:40;;;;;;;;;;;;;;;;;;5094403;28;19920;-77
2021/12/10 14:26:07;;;;;;;;;;;;;;;;;;5093978;28;20010;-77
2021/12/10 14:28:44;;;;;;;;;;;;;;;;;;5095030;28;20247;-76
2021/12/10 14:31:11;;;;;;;;;;;;;;;;;;5094524;28;20369;-76
2021/12/10 14:33:41;;;;;;;;;;;;;;;;;;5093324;28;19916;-76
2021/12/10 14:36:15;;;;;;;;;;;;;;;;;;5093879;28;19923;-76
2021/12/10 14:38:41;;;;;;;;;;;;;;;;;;5095163;28;19920;-76
2021/12/10 14:41:11;;;;;;;;;;;;;;;;;;5094864;28;19939;-76
2021/12/10 14:43:39;;;;;;;;;;;;;;;;;;5094753;28;19915;-76
2021/12/10 14:46:10;;;;;;;;;;;;;;;;;;5094824;28;19920;-77
2021/12/10 14:48:38;;;;;;;;;;;;;;;;;;5093607;28;20346;-76
2021/12/10 14:51:11;;;;;;;;;;;;;;;;;;5094643;28;20035;-76
2021/12/10 14:53:36;;;;;;;;;;;;;;;;;;5094810;28;20016;-75
2021/12/10 14:56:16;;;;;;;;;;;;;;;;;;5094483;28;19924;-76
2021/12/10 14:59:00;;;;;;;;;;;;;;;;;;5094288;28;19920;-76
2021/12/10 15:01:25;;;;;;;;;;;;;;;;;;5094729;28;19916;-77
2021/12/10 15:03:52;;;;;;;;;;;;;;;;;;5089789;28;20374;-76
2021/12/10 15:06:18;;;;;;;;;;;;;;;;;;5093295;28;20405;-76
2021/12/10 15:08:56;;;;;;;;;;;;;;;;;;5092663;28;20023;-76
2021/12/10 15:11:52;;;;;;;;;;;;;;;;;;5093263;28;19920;-77
2021/12/10 15:14:23;;;;;;;;;;;;;;;;;;5080851;28;20020;-77
2021/12/10 15:16:59;;;;;;;;;;;;;;;;;;5076306;28;20397;-76
2021/12/10 15:19:27;;;;;;;;;;;;;;;;;;5094359;28;20014;-76
2021/12/10 15:21:54;;;;;;;;;;;;;;;;;;5093414;28;20262;-76
2021/12/10 15:24:19;;;;;;;;;;;;;;;;;;5087941;28;20271;-76
2021/12/10 15:26:47;;;;;;;;;;;;;;;;;;5082469;28;19923;-77
2021/12/10 15:29:21;;;;;;;;;;;;;;;;;;5084117;28;19998;-77
2021/12/10 15:31:47;;;;;;;;;;;;;;;;;;5078452;28;20282;-76
2021/12/10 15:34:12;;;;;;;;;;;;;;;;;;5084566;28;19920;-77
2021/12/10 15:36:38;;;;;;;;;;;;;;;;;;5093305;28;19924;-76
2021/12/10 15:39:04;;;;;;;;;;;;;;;;;;5094070;28;19974;-77
2021/12/10 15:41:32;;;;;;;;;;;;;;;;;;5094008;28;20015;-77
2021/12/10 15:44:03;;;;;;;;;;;;;;;;;;5093926;28;19977;-77
2021/12/10 15:46:32;;;;;;;;;;;;;;;;;;5093901;28;19966;-76
2021/12/10 15:49:00;;;;;;;;;;;;;;;;;;5094025;28;20340;-76
2021/12/10 15:51:31;;;;;;;;;;;;;;;;;;5093019;28;19985;-76
2021/12/10 15:53:59;;;;;;;;;;;;;;;;;;5093543;28;19921;-76
2021/12/10 15:56:30;;;;;;;;;;;;;;;;;;5092349;28;19916;-76
2021/12/10 15:58:58;;;;;;;;;;;;;;;;;;5093798;28;20373;-76
2021/12/10 16:01:26;;;;;;;;;;;;;;;;;;5093787;28;19923;-76
2021/12/10 16:03:55;;;;;;;;;;;;;;;;;;5092574;28;20418;-76
2021/12/10 16:06:20;;;;;;;;;;;;;;;;;;5093645;28;19923;-76
2021/12/10 16:08:48;;;;;;;;;;;;;;;;;;5093472;28;19916;-77
2021/12/10 16:11:14;;;;;;;;;;;;;;;;;;5093866;28;19961;-77
2021/12/10 16:13:41;;;;;;;;;;;;;;;;;;5093866;28;19920;-77
2021/12/10 16:16:07;;;;;;;;;;;;;;;;;;5092514;28;19923;-77
2021/12/10 16:18:35;;;;;;;;;;;;;;;;;;5094367;28;19955;-76
2021/12/10 16:21:13;;;;;;;;;;;;;;;;;;5075600;28;19922;-76
2021/12/10 16:23:40;;;;;;;;;;;;;;;;;;5095283;28;20377;-77
2021/12/10 16:26:08;;;;;;;;;;;;;;;;;;5095665;28;20281;-76
2021/12/10 16:28:34;;;;;;;;;;;;;;;;;;5099096;28;19923;-77
2021/12/10 16:31:03;;;;;;;;;;;;;;;;;;5096758;28;19915;-77
2021/12/10 16:33:34;;;;;;;;;;;;;;;;;;5100870;28;19919;-78
2021/12/10 16:36:00;;;;;;;;;;;;;;;;;;5101774;28;19920;-78
2021/12/10 16:38:27;;;;;;;;;;;;;;;;;;5098238;28;20305;-76
2021/12/10 16:41:02;;;;;;;;;;;;;;;;;;5100438;28;19946;-77
2021/12/10 16:43:29;;;;;;;;;;;;;;;;;;5085152;28;19939;-78
2021/12/10 16:45:55;;;;;;;;;;;;;;;;;;5102289;28;19928;-77
2021/12/10 16:48:22;;;;;;;;;;;;;;;;;;5100413;28;19931;-77
2021/12/10 16:50:49;;;;;;;;;;;;;;;;;;5097457;28;19970;-77
2021/12/10 16:53:15;;;;;;;;;;;;;;;;;;5097388;28;19916;-76
2021/12/10 16:55:41;;;;;;;;;;;;;;;;;;5099774;28;20271;-79
2021/12/10 16:58:17;;;;;;;;;;;;;;;;;;5097467;28;19961;-77
2021/12/10 17:00:58;;;;;;;;;;;;;;;;;;5098173;28;19916;-77
2021/12/10 17:03:26;;;;;;;;;;;;;;;;;;5099530;28;19916;-79